Create Custom Reports and Graphics: Custom Report

Latest Observations

Map

15 Minute Data

South County Map

Map

15 Minute Data

Northern Sonoma County Latest

13 Stations

15 Minute Data | America/Los_Angeles
as of 12/9/19 1:46 PM PST
Station Date Time Temp (°F) RH (%) Dew Pt (°F) Wind Spd (mph) Wind Dir (°) Wind Gust (mph) Latest Rain (In) Daily Rain (In) Daily Min Temp (°F) Daily Max Temp (°F)
Cooley-Rockpile 12/9/19 1200 54.0   3.4 81   18 48.5   2.2 2.6 SE | 143 6.1   0.9 0.00 0.00 44.9   0.6 55.2   3.5
Cooley Lower Remote 12/9/19 1200 50.7   3.5 97   1 50.0   3.3 1.6 SE | 129 3.3   0.7 0.00 0.01 42.1   7.0 51.8   4.0
Rancho Alexander-Cloverdale 12/9/19 1345 52.1   9.0 89   26 49.0   0.7 5.5 S | 172 9.3   7.1 0.00 0.00 44.1   7.5 55.8   7.0
Ranch 38 (Cloverdale-SE) 12/9/19 1345 49.5   9.5 95   17 48.2   4.0 7.1 S | 180 10.6   4.9 0.00 0.00 45.8   5.1 56.2   5.4
Hoffman - Geyserville 12/9/19 1345 49.8   10.6 93   25 47.8   1.9 3.0 SSE | 148 7.1   4.3 0.00 0.01 41.8   7.9 53.8   8.5
Geyserville Ranch 3 12/9/19 1345 50.3   11.6 95   24 48.8   3.4 2.5 ESE | 118 5.1   1.0 0.00 0.00 44.4   6.4 53.1   9.4
Ranch 40 (Geyserville-NE) 12/9/19 1345 47.8   9.5 100   15 47.8   4.9 5.7 S | 190 8.9   3.7 0.00 0.00 43.8   7.2 53.1   6.8
Geyserville - S (Nervo Station) 12/9/19 1300 49.2   10.2 96   22 48.1   3.0 2.9 S | 191 5.8   1.3 0.00 0.00 44.7   6.4 51.4   9.2
River Oaks (Lytton) 12/9/19 1330 50.2   10.1 96   22 49.0   2.8 3.7 S | 184 7.0   3.1 0.00 0.00 39.6   7.9 50.7   11.4
Piccolo - Alexander Valley 12/9/19 1345 50.1   10.8 100   33 50.1   0.0 1.9 S | 183 5.3   2.0 0.00 0.00 44.8   3.9 50.8   11.5
Red Fan 12/9/19 1345 50.4   11.6 95   26 48.9   2.7 3.7 SSE | 167 5.8   1.4 0.00 0.00 44.8   5.7 51.2   11.6
Landslide 12/9/19 1345 49.8   12.3 95   27 48.5   3.0 3.0 SW | 229 5.0   1.2 0.00 0.00 45.0   5.7 50.2   13.4
Dry Creek Valley 12/9/19 0745 40.9   10.8 100   0 40.9   10.8 0.0 NW | 307 0.9   2.0 0.00 0.00 39.6   11.2 45.0   7.5
Max     52.1 100 50.1 7.1 - 10.6 0.00 0.01 45.8 56.2
Avg     49.9 95 48.6 3.9 - 7.0 0.00 - - -
Min     47.8 89 47.8 1.9 - 5.0 0.00 0.00 39.6 50.2

Central Sonoma County Latest

23 Stations

15 Minute Data | America/Los_Angeles
as of 12/9/19 1:46 PM PST
Station Date Time Temp (°F) RH (%) Dew Pt (°F) Wind Spd (mph) Wind Dir (°) Wind Gust (mph) Latest Rain (In) Daily Rain (In) Daily Min Temp (°F) Daily Max Temp (°F)
Healdsburg - S (Sodini) 12/9/19 1300 49.6   11.1 97   25 48.9   2.9 3.1 SSE | 159 5.1   1.3 0.00 0.01 42.9   7.9 50.2   12.5
Ranch 8 (Windsor-NW) 12/9/19 1345 50.8   12.6 93   20 48.8   5.6 1.6 SE | 131 3.9   2.2 0.00 0.01 43.5   7.5 51.1   14.8
Foothill Ranch 16 12/9/19 1345 49.4   12.7 98   31 49.0   2.2 2.8 SSE | 148 5.3   0.0 0.00 0.01 41.8   8.9 49.5   14.2
Airport Ranch 14 12/9/19 1345 50.2   12.6 97   31 49.4   1.9 1.6 SE | 127 4.2   0.5 0.00 0.00 42.2   8.6 50.6   13.1
Silk Road 12/9/19 1345 51.0   11.6 96   29 50.0   1.6 1.9 ESE | 112 5.0   2.4 0.00 0.00 41.2   7.1 51.3   11.8
Oak Meadows Ranch 5 12/9/19 1345 50.1   10.8 100   28 50.1   1.7 1.9 ENE | 78 4.1   2.1 0.00 0.00 43.2   7.4 50.6   12.1
Laughlin Rd (Windsor-South) 12/9/19 1345 50.4   10.4 66   4 22.9   27.8 - - - - - 44.4   6.1 50.9   11.2
Barnes Rd (SE Fulton) 12/9/19 1345 49.8   10.4 98   23 49.3   2.9 1.1 S | 181 3.2   2.1 0.00 0.00 41.5   8.5 50.2   10.5
Crinella Ranch 21 12/9/19 1345 49.9   11.4 100   32 49.9   0.8 1.2 ENE | 68 3.0   5.3 0.00 0.00 44.4   5.5 50.1   12.5
Goldfields (NW Santa Rosa) 12/9/19 1345 50.3   13.6 100   36 50.3   1.0 1.0 E | 90 3.0   4.8 0.00 0.01 45.0   4.7 50.7   14.6
Denner Ranch Base 12/9/19 1345 50.7   11.8 100   35 50.7   0.0 2.2 E | 97 3.9   2.6 0.00 0.00 45.9   4.2 50.9   12.5
Guerneville Road (Santa Rosa Plains) 12/9/19 1345 51.0   9.3 95   19 49.6   3.0 1.9 NE | 56 4.0   1.6 0.00 0.01 45.9   3.4 51.3   9.4
Rich Ranch (Guerneville Rd) 12/9/19 1345 51.1   12.2 100   32 51.0   1.4 - - - - - 45.8   4.4 51.5   12.8
Occidental Rd (Sebastopol) 12/9/19 0745 47.1 100 47.1 1.1 NW | 316 2.8 0.00 0.01 46.2 50.3
Garrison Ranch 12 12/9/19 1345 51.0   11.9 99   29 50.8   2.3 1.4 SE | 132 3.3   1.8 0.00 0.00 45.0   5.0 51.4   12.4
Laughlin Rd (Guerneville) 12/9/19 1345 53.6   7.2 89   13 50.6   2.8 0.8 ENE | 58 2.1   3.1 0.00 0.22 44.2   7.9 53.7   8.4
Korbel Winery 12/9/19 1345 52.7   6.4 93   7 50.7   4.2 1.7 E | 89 3.1   1.4 0.00 0.00 45.1   7.5 53.0   8.9
Shone Farms (Forestville) 12/9/19 1300 49.6   9.5 98   22 49.2   2.6 2.1 SE | 136 3.7   1.6 0.00 0.01 45.2   4.6 50.8   9.7
Ranch 30 (Forestville-NE) 12/9/19 1345 50.5   13.0 97   27 49.6   3.9 0.7 ESE | 102 3.1   2.0 0.00 0.01 45.0   4.5 50.8   13.8
Dutton Ranch (Graton-West) 12/9/19 1345 51.8   6.9 100   9 51.8   4.2 2.5 NNE | 19 4.1   2.6 0.00 0.01 44.8   4.0 52.0   10.2
Mill Station Rd (Graton-South) 12/9/19 1345 51.6   8.1 100   26 51.6   0.2 1.9 NNE | 33 3.5   2.1 0.00 0.01 45.0   4.6 51.8   9.6
Burnside Road (Sebastopol Hills) 12/9/19 1345 51.5   5.7 96   11 50.3   2.2 2.2 WNW | 288 4.3   0.5 0.00 0.01 44.0   7.3 51.8   7.5
Hirsch Vineyards 12/9/19 1345 47.1   5.9 97   1 46.3   5.6 1.6 W | 272 4.2   1.4 0.00 0.00 45.8   3.0 52.1   1.8
Max     53.6 100 51.8 3.1 - 5.3 0.00 0.22 45.9 53.7
Avg     50.6 96 48.7 1.8 - 3.8 0.00 - - -
Min     47.1 66 22.9 0.7 - 2.1 0.00 0.00 41.2 49.5

Southern Sonoma County Latest

14 Stations

15 Minute Data | America/Los_Angeles
as of 12/9/19 1:46 PM PST
Station Date Time Temp (°F) RH (%) Dew Pt (°F) Wind Spd (mph) Wind Dir (°) Wind Gust (mph) Latest Rain (In) Daily Rain (In) Daily Min Temp (°F) Daily Max Temp (°F)
Lower Bennett Valley 12/9/19 0745 35.8   16.6 100   2 35.8   16.2 0.7 WNW | 283 1.7   1.2 0.00 0.01 34.4   17.1 39.8   15.1
Kunde - Kenwood 12/8/19 1045 40.6   1.8 90   4 38.0   2.8 0.0 N | 0 0.0   15.3 0.00 1.97 38.7   2.0 50.4   7.8
Sonoma Valley (Bedrock) 12/9/19 1300 48.6   11.9 100   32 48.6   1.4 1.3 SE | 144 3.1   3.0 0.00 0.01 39.1   10.5 48.9   12.2
Arnold (Sonoma) 12/9/19 1345 52.0   11.5 92   24 49.9   2.9 2.2 NNW | 339 3.8   3.6 0.00 0.00 38.3   13.0 52.2   12.4
Schellville 12/9/19 1300 51.7   11.1 98   30 51.3   1.1 0.6 SE | 142 4.1   0.7 0.00 0.01 40.8   10.0 52.0   11.5
Napoli (Sonoma-SE) 12/9/19 1300 50.5   12.8 97   32 49.6   1.7 1.7 ESE | 104 3.8   0.3 0.00 0.01 38.4   12.5 51.1   12.8
Diamond R71 (Carneros) 12/9/19 1345 50.4   10.2 100   29 50.4   0.6 2.3 SW | 217 4.7   2.1 0.00 0.00 41.1   9.9 51.6   11.0
Huichica Upper 12/9/19 1345 50.3   10.6 99   30 50.0   0.6 6.2 W | 264 8.9   5.4 - - 41.7   9.0 50.8   13.2
Huichica-Lower 12/9/19 1345 51.1   9.2 100   27 51.1   0.6 2.4 W | 278 4.9   0.4 0.00 0.01 40.7   9.1 51.3   11.8
Stony Point (West Rohnert Park) 12/9/19 1345 52.4   8.1 94   21 50.7   1.1 1.1 N | 353 3.1   1.2 0.00 0.01 45.9   4.8 52.9   8.8
Asellus (Penngrove) 12/9/19 1345 51.2   10.4 100   32 51.2   0.4 1.9 NNE | 12 3.0   1.1 0.00 0.01 42.8   8.4 51.5   11.8
Rodger's Creek 12/9/19 1345 49.4   7.4 100   19 49.4   1.7 5.1 WNW | 285 7.8   0.7 0.00 0.01 40.7   10.1 51.6   7.4
Frates R10 (East Petaluma) 12/9/19 1345 52.0   8.9 100   26 51.9   0.4 2.4 NNE | 12 4.6   3.3 0.00 0.01 44.2   6.2 52.2   12.2
Sleepy Hollow-Lakeville 12/9/19 1345 51.6   9.4 100   26 51.6   0.9 2.1 NW | 325 4.3   0.0 0.00 0.00 44.3   6.4 52.1   11.7
Max     52.4 100 51.9 6.2 - 8.9 0.00 0.01 45.9 52.9
Avg     50.9 98 50.5 2.4 - 4.7 0.00 - - -
Min     48.6 92 48.6 0.6 - 3.0 0.00 0.00 38.3 48.9